Latest Weather Observations for Port Pirie Airport AWS

IDS60801

Issued at 5:01 am CDT Friday 24 November 2017 (issued every 30 minutes, with the page automatically refreshed every 10 minutes)

About weather observations | Map of weather stations | Latest weather observations for SA | Other Formats
Station Details ID: 021139 Name: PORT PIRIE AERODROME AWS Lat: -33.24 Lon: 138.00 Height: 12.0 m
Data from the previous 72 hours. | See also: Recent months for locations in South Australia
Date/Time
CDT
Temp
°C
App
Temp
°C
Dew
Point
°C
Rel
Hum
%
Delta-T
°C
Wind Press
QNH
hPa
Press
MSL
hPa
Rain since
9am
mm
Dir  Spd
km/h
Gust
km/h
Spd
kts
Gust
kts
24/05:00am 18.3 16.9 17.1 93 0.7 SE 20 24 11 13 1009.4 1009.4 27.8
24/04:30am 18.7 17.9 17.0 90 1.0 ESE 17 20 9 11 1009.5 1009.5 27.8
24/04:00am 18.6 18.3 17.4 93 0.7 SE 15 17 8 9 1009.4 1009.4 27.8
24/03:30am 18.5 18.6 17.5 94 0.6 SSE 13 19 7 10 1009.4 1009.4 27.8
24/03:00am 18.8 18.6 17.5 92 0.8 SE 15 19 8 10 1009.4 1009.4 27.8
24/02:30am 18.7 18.9 17.7 94 0.6 ESE 13 15 7 8 1009.7 1009.7 27.8
24/02:00am 18.9 18.7 17.6 92 0.8 SE 15 20 8 11 1010.0 1010.0 27.8
24/01:30am 18.8 18.5 17.3 91 0.9 SE 15 19 8 10 1010.2 1010.2 27.8
24/01:00am 18.8 18.4 17.1 90 1.0 ESE 15 17 8 9 1010.6 1010.6 27.8
24/12:30am 18.9 19.2 17.9 94 0.6 SE 13 17 7 9 1010.6 1010.6 27.8
24/12:00am 19.2 20.1 17.5 90 1.0 S 9 11 5 6 1010.8 1010.8 27.8
 
Date/Time
CDT
Temp
°C
App
Temp
°C
Dew
Point
°C
Rel
Hum
%
Delta-T
°C
Wind Press
QNH
hPa
Press
MSL
hPa
Rain since
9am
mm
Dir  Spd
km/h
Gust
km/h
Spd
kts
Gust
kts
23/11:30pm 19.2 21.9 17.7 91 0.9 CALM 0 0 0 0 1010.9 1010.9 27.8
23/11:00pm 19.5 21.0 17.5 88 1.2 NNW 6 9 3 5 1010.8 1010.8 27.8
23/10:30pm 19.7 20.6 16.7 83 1.8 ENE 7 9 4 5 1010.8 1010.8 27.8
23/10:00pm 19.7 20.4 17.1 85 1.6 E 9 13 5 7 1010.5 1010.5 27.8
23/09:30pm 20.3 21.0 17.1 82 2.0 SE 9 13 5 7 1010.1 1010.1 27.8
23/09:00pm 20.5 20.8 17.1 81 2.1 ESE 11 13 6 7 1010.0 1010.0 27.8
23/08:30pm 20.5 20.7 16.7 79 2.3 ESE 11 13 6 7 1009.7 1009.7 27.8
23/08:00pm 21.2 20.4 16.2 73 3.0 E 15 17 8 9 1009.4 1009.4 27.8
23/07:30pm 21.9 21.5 16.2 70 3.4 ENE 13 17 7 9 1009.1 1009.1 27.8
23/07:00pm 22.0 20.6 15.6 67 3.8 ESE 17 24 9 13 1009.0 1009.0 27.8
23/06:30pm 21.6 19.8 16.1 71 3.3 SSE 20 24 11 13 1008.2 1008.2 27.8
23/06:00pm 21.6 20.5 17.2 76 2.7 S 19 26 10 14 1008.4 1008.4 27.8
23/05:30pm 21.1 20.0 17.3 79 2.3 S 19 24 10 13 1008.7 1008.7 27.8
23/05:00pm 20.8 20.6 17.6 82 2.0 S 15 20 8 11 1008.6 1008.6 27.8
23/04:30pm 19.8 18.2 18.3 91 0.9 ESE 24 30 13 16 1007.7 1007.7 27.8
23/04:00pm 19.3 15.0 18.6 96 0.4 ESE 39 50 21 27 1006.5 1006.5 27.8
23/03:56pm 19.1 14.7 18.4 96 0.4 E 39 48 21 26 1006.5 1006.5 27.8
23/03:30pm 18.4 17.2 18.4 100 0.0 E 22 30 12 16 1008.2 1008.2 27.6
23/03:00pm 18.0 18.0 18.0 100 0.0 E 15 19 8 10 1010.1 1010.1 24.8
23/02:30pm 18.2 19.4 18.2 100 0.0 SE 9 13 5 7 1010.4 1010.4 20.6
23/02:00pm 18.0 19.7 18.0 100 0.0 SE 6 7 3 4 1010.5 1010.5 17.4
23/01:30pm 18.1 19.8 18.1 100 0.0 E 6 9 3 5 1010.4 1010.4 16.8
23/01:00pm 18.5 18.3 18.5 100 0.0 ESE 17 20 9 11 1010.5 1010.5 13.0
23/12:30pm 17.7 17.5 17.7 100 0.0 S 15 22 8 12 1010.8 1010.8 10.0
23/12:00pm 18.2 16.9 18.2 100 0.0 SSE 22 28 12 15 1010.1 1010.1 7.8
23/11:30am 18.2 17.3 18.2 100 0.0 SSE 20 28 11 15 1010.8 1010.8 6.6
23/11:00am 17.8 16.7 17.8 100 0.0 SSE 20 28 11 15 1011.3 1011.3 5.8
23/10:30am 17.6 13.6 17.6 100 0.0 SSW 35 52 19 28 1010.3 1010.3 4.4
23/10:24am 17.9 14.6 17.9 100 0.0 SW 32 52 17 28 1010.9 1010.9 2.8
23/10:20am 18.2 15.8 18.2 100 0.0 SW 28 44 15 24 1011.3 1011.3 2.6
23/10:00am 19.3 19.5 19.3 100 0.0 WSW 17 26 9 14 1011.0 1011.0 1.0
23/09:30am 20.0 21.2 20.0 100 0.0 SW 13 17 7 9 1009.9 1009.9 0.4
23/09:00am 19.7 22.1 19.7 100 0.0 W 6 9 3 5 1010.3 1010.3 14.4
23/08:30am 20.0 22.6 20.0 100 0.0 SE 6 9 3 5 1009.3 1009.3 13.6
23/08:00am 20.1 21.7 19.9 99 0.1 NNW 11 15 6 8 1009.5 1009.5 12.2
23/07:30am 20.0 22.4 20.0 100 0.0 W 7 11 4 6 1008.7 1008.7 12.2
23/07:00am 19.6 21.4 19.6 100 0.0 NNW 9 13 5 7 1008.4 1008.4 12.2
23/06:30am 18.9 20.8 18.9 100 0.0 NE 7 9 4 5 1008.0 1008.0 12.2
23/06:00am 18.7 20.5 18.7 100 0.0 N 7 11 4 6 1007.9 1007.9 12.2
23/05:30am 18.6 20.0 18.6 100 0.0 NE 9 13 5 7 1007.8 1007.8 12.2
23/05:00am 18.4 19.7 18.4 100 0.0 NNW 9 11 5 6 1007.6 1007.6 12.2
23/04:30am 18.3 20.9 18.3 100 0.0 NNW 2 6 1 3 1007.8 1007.8 12.2
23/04:00am 17.9 19.0 17.9 100 0.0 NW 9 11 5 6 1008.3 1008.3 12.2
23/03:30am 18.3 19.8 18.0 98 0.2 WNW 7 9 4 5 1008.1 1008.1 12.2
23/03:00am 18.6 19.8 17.4 93 0.7 SSW 7 9 4 5 1007.9 1007.9 12.2
23/02:30am 18.7 20.0 17.5 93 0.7 N 7 11 4 6 1007.7 1007.7 12.2
23/02:00am 19.4 22.0 17.4 88 1.2 CALM 0 0 0 0 1008.0 1008.0 12.2
23/01:30am 19.4 20.6 17.4 88 1.2 NNW 7 9 4 5 1008.3 1008.3 12.2
23/01:00am 19.3 20.8 18.0 92 0.8 NNW 7 9 4 5 1008.1 1008.1 12.2
23/12:30am 19.9 20.0 18.4 91 0.9 NNW 15 17 8 9 1008.2 1008.2 12.2
23/12:00am 20.2 21.0 17.4 84 1.7 NE 9 13 5 7 1008.4 1008.4 12.2
 
Date/Time
CDT
Temp
°C
App
Temp
°C
Dew
Point
°C
Rel
Hum
%
Delta-T
°C
Wind Press
QNH
hPa
Press
MSL
hPa
Rain since
9am
mm
Dir  Spd
km/h
Gust
km/h
Spd
kts
Gust
kts
22/11:30pm 20.2 20.7 16.6 80 2.2 SSE 9 13 5 7 1007.8 1007.8 12.2
22/11:00pm 20.2 20.9 17.0 82 1.9 SSE 9 11 5 6 1007.8 1007.8 12.2
22/10:30pm 20.3 19.4 16.9 81 2.1 ESE 17 20 9 11 1007.6 1007.6 12.2
22/10:00pm 20.2 19.4 17.2 83 1.8 SE 17 20 9 11 1007.7 1007.7 12.2
22/09:30pm 20.8 21.1 18.0 84 1.7 ENE 13 17 7 9 1008.4 1008.4 12.2
22/09:00pm 21.5 19.7 16.0 71 3.3 N 20 24 11 13 1009.1 1009.1 12.2
22/08:30pm 20.8 20.3 17.0 79 2.3 N 15 32 8 17 1009.7 1009.7 12.2
22/08:00pm 20.1 20.0 16.9 82 1.9 ENE 13 20 7 11 1009.5 1009.5 12.2
22/07:30pm 19.6 17.5 17.2 86 1.5 E 24 32 13 17 1008.4 1008.4 12.2
22/07:04pm 19.1 15.3 17.2 89 1.2 ESE 33 44 18 24 1008.0 1008.0 12.2
22/07:00pm 19.3 16.2 17.6 90 1.0 SE 30 39 16 21 1008.2 1008.2 12.2
22/06:57pm 19.2 16.8 17.3 89 1.2 ESE 26 35 14 19 1008.0 1008.0 12.2
22/06:30pm 19.8 19.6 16.6 82 1.9 S 13 17 7 9 1009.8 1009.8 11.8
22/06:00pm 19.8 21.0 16.8 83 1.8 WSW 6 11 3 6 1011.1 1011.1 10.4
22/05:30pm 19.9 17.4 16.2 79 2.2 W 24 35 13 19 1011.0 1011.0 8.8
22/05:05pm 20.6 16.5 13.8 65 3.9 W 28 46 15 25 1010.8 1010.8 7.8
22/05:00pm 21.3 16.3 14.0 63 4.2 W 33 46 18 25 1010.2 1010.2 7.8
22/04:53pm 21.3 15.6 14.2 64 4.1 W 37 46 20 25 1010.3 1010.3 7.8
22/04:30pm 21.9 20.6 15.7 68 3.7 SSE 17 39 9 21 1011.3 1011.3 5.6
22/04:00pm 21.7 20.3 17.9 79 2.4 SSW 22 32 12 17 1010.0 1010.0 5.4
22/03:37pm 24.0 21.0 15.8 60 5.0 ESE 26 44 14 24 1011.0 1011.0 0.0
22/03:30pm 25.4 23.8 15.1 53 6.2 SE 17 26 9 14 1010.7 1010.7 0.0
22/03:00pm 27.2 22.5 13.2 42 8.2 SSW 30 39 16 21 1009.2 1009.2 0.0
22/02:30pm 27.5 22.9 13.4 41 8.3 SSW 30 41 16 22 1009.7 1009.7 0.0
22/02:00pm 30.2 25.5 14.3 38 9.6 SW 32 44 17 24 1009.7 1009.7 0.0
22/01:30pm 28.4 23.2 14.6 43 8.3 SW 35 44 19 24 1010.3 1010.3 0.0
22/01:00pm 29.2 24.6 15.0 42 8.7 SW 33 44 18 24 1010.9 1010.9 0.0
22/12:30pm 29.0 21.6 13.2 37 9.4 W 44 54 24 29 1011.2 1011.2 0.0
22/12:27pm 31.6 24.3 13.4 33 10.9 W 44 54 24 29 1011.1 1011.1 0.0
22/12:00pm 31.0 23.6 12.4 32 11.0 WNW 43 57 23 31 1011.1 1011.1 0.0
22/11:30am 32.6 24.4 11.7 28 12.3 NW 46 59 25 32 1010.9 1010.9 0.0
22/11:00am 33.7 25.9 9.7 23 13.7 NW 41 52 22 28 1010.9 1010.9 0.0
22/10:30am 33.1 25.2 7.9 21 14.0 WNW 39 52 21 28 1010.8 1010.8 0.0
22/10:17am 31.4 23.5 10.7 28 11.9 NNW 43 61 23 33 1010.7 1010.7 0.0
22/10:01am 34.6 27.6 6.8 18 15.3 N 33 54 18 29 1010.1 1010.1 0.0
22/10:00am 34.5 27.7 7.5 19 15.0 N 33 44 18 24 1010.2 1010.2 0.0
22/09:30am 33.0 25.5 6.3 19 14.4 N 35 48 19 26 1010.1 1010.1 0.0
22/09:13am 31.8 24.3 6.1 20 13.8 N 35 54 19 29 1010.2 1010.2 0.0
22/09:00am 31.5 24.0 6.5 21 13.5 N 35 44 19 24 1010.2 1010.2 0.0
22/08:37am 31.4 24.5 6.5 21 13.4 N 32 50 17 27 1010.1 1010.1 0.0
22/08:30am 31.1 25.3 6.2 21 13.3 N 26 39 14 21 1010.1 1010.1 0.0
22/08:00am 29.5 22.9 6.2 23 12.3 N 30 39 16 21 1010.2 1010.2 0.0
22/07:30am 28.3 23.9 7.5 27 11.2 NNW 20 28 11 15 1009.9 1009.9 0.0
22/07:00am 28.6 21.2 4.2 21 12.4 N 32 43 17 23 1009.4 1009.4 0.0
22/06:30am 28.3 21.3 3.9 21 12.3 NNE 30 41 16 22 1008.9 1008.9 0.0
22/06:00am 28.2 20.6 3.8 21 12.3 NNE 33 46 18 25 1008.6 1008.6 0.0
22/05:30am 28.4 21.3 3.3 20 12.6 NNE 30 41 16 22 1008.3 1008.3 0.0
22/05:00am 28.3 21.9 3.2 20 12.5 NNE 26 35 14 19 1008.2 1008.2 0.0
22/04:30am 28.5 22.1 3.4 20 12.6 NNE 26 33 14 18 1008.2 1008.2 0.0
22/04:00am 24.8 20.3 4.0 26 10.3 N 17 24 9 13 1008.2 1008.2 0.0
22/03:30am 28.0 22.9 3.0 20 12.4 NNE 19 33 10 18 1008.2 1008.2 0.0
22/03:00am 26.4 21.7 0.9 19 12.1 NNE 15 24 8 13 1008.3 1008.3 0.0
22/02:30am 25.5 21.6 0.9 20 11.6 NE 11 15 6 8 1008.5 1008.5 0.0
22/02:00am 24.6 20.8 1.5 22 10.9 NE 11 15 6 8 1008.8 1008.8 0.0
22/01:30am 25.5 20.9 1.6 21 11.4 NE 15 17 8 9 1009.1 1009.1 0.0
22/01:00am 25.6 21.5 2.3 22 11.2 NE 13 15 7 8 1009.5 1009.5 0.0
22/12:30am 24.6 20.0 1.5 22 10.9 NE 15 17 8 9 1009.9 1009.9 0.0
22/12:00am 26.3 21.7 1.6 20 11.8 NE 15 17 8 9 1010.0 1010.0 0.0
 
Date/Time
CDT
Temp
°C
App
Temp
°C
Dew
Point
°C
Rel
Hum
%
Delta-T
°C
Wind Press
QNH
hPa
Press
MSL
hPa
Rain since
9am
mm
Dir  Spd
km/h
Gust
km/h
Spd
kts
Gust
kts
21/11:30pm 28.3 23.4 1.7 18 12.9 NE 17 20 9 11 1010.2 1010.2 0.0
21/11:00pm 28.7 23.2 2.1 18 13.1 NE 20 26 11 14 1010.1 1010.1 0.0
21/10:30pm 28.9 23.5 1.4 17 13.4 NE 19 24 10 13 1010.1 1010.1 0.0
21/10:00pm 29.0 23.8 2.3 18 13.2 ENE 19 20 10 11 1010.2 1010.2 0.0
21/09:30pm 29.5 24.7 2.7 18 13.4 NE 17 24 9 13 1010.0 1010.0 0.0
21/09:00pm 28.4 23.5 1.8 18 13.0 ENE 17 19 9 10 1009.9 1009.9 0.0
21/08:30pm 31.4 26.1 1.7 15 14.8 NE 19 26 10 14 1009.7 1009.7 0.0
21/08:00pm 32.5 27.2 1.6 14 15.4 NE 19 24 10 13 1009.5 1009.5 0.0
21/07:30pm 34.0 28.3 0.6 12 16.6 NE 20 28 11 15 1009.3 1009.3 0.0
21/07:00pm 34.8 28.3 0.0 11 17.2 NE 24 33 13 18 1009.0 1009.0 0.0
21/06:30pm 35.4 29.1 1.7 12 17.2 NE 24 37 13 20 1008.9 1008.9 0.0
21/06:00pm 35.7 30.2 1.9 12 17.3 NE 20 32 11 17 1008.9 1008.9 0.0
21/05:30pm 36.4 30.6 2.5 12 17.6 NNE 22 32 12 17 1009.0 1009.0 0.0
21/05:00pm 36.2 30.0 2.3 12 17.5 NE 24 43 13 23 1009.1 1009.1 0.0
21/04:30pm 36.7 30.8 3.8 13 17.5 NNE 24 41 13 22 1009.4 1009.4 0.0
21/04:00pm 36.2 29.8 3.4 13 17.2 NNE 26 35 14 19 1009.7 1009.7 0.0
21/03:30pm 36.2 30.6 3.4 13 17.2 NE 22 37 12 20 1009.9 1009.9 0.0
21/03:15pm 35.4 28.7 3.9 14 16.6 NE 28 43 15 23 1010.1 1010.1 0.0
21/03:00pm 35.6 30.5 4.0 14 16.7 NE 20 37 11 20 1010.3 1010.3 0.0
21/02:30pm 36.2 30.8 4.5 14 17.0 NNE 22 37 12 20 1010.7 1010.7 0.0
21/02:00pm 35.1 29.7 4.6 15 16.2 NNE 22 39 12 21 1011.0 1011.0 0.0
21/01:30pm 35.7 30.0 5.1 15 16.5 NNE 24 43 13 23 1011.4 1011.4 0.0
21/01:00pm 35.0 29.8 5.4 16 15.9 NE 22 33 12 18 1011.9 1011.9 0.0
21/12:30pm 34.7 29.0 6.9 18 15.3 N 26 37 14 20 1012.3 1012.3 0.0
21/12:00pm 34.9 28.9 7.1 18 15.4 N 28 39 15 21 1012.7 1012.7 0.0
21/11:45am 35.3 28.8 6.6 17 15.8 NNE 30 48 16 26 1012.9 1012.9 0.0
21/11:30am 34.1 27.0 6.4 18 15.1 NNE 33 44 18 24 1013.0 1013.0 0.0
21/11:00am 35.2 27.2 7.3 18 15.5 N 39 52 21 28 1013.2 1013.2 0.0
21/10:30am 33.5 26.8 7.5 20 14.4 N 32 44 17 24 1013.3 1013.3 0.0
21/10:20am 34.0 26.7 7.1 19 14.8 NNE 35 54 19 29 1013.3 1013.3 0.0
21/10:00am 32.7 25.7 6.8 20 14.1 N 33 46 18 25 1013.3 1013.3 0.0
21/09:30am 31.1 24.1 6.9 22 13.1 N 33 46 18 25 1013.3 1013.3 0.0
21/09:01am 30.1 22.7 6.7 23 12.5 NNE 35 54 19 29 1013.4 1013.4 0.0
21/09:00am 29.8 22.0 6.5 23 12.4 NNE 37 54 20 29 1013.4 1013.4 0.0
21/08:30am 31.0 23.8 7.5 23 12.8 NNE 35 50 19 27 1013.2 1013.2 0.0
21/08:00am 29.9 22.8 6.5 23 12.5 NNE 33 52 18 28 1013.0 1013.0 0.0
21/07:58am 30.4 23.4 7.0 23 12.6 NNE 33 52 18 28 1013.0 1013.0 0.0
21/07:30am 28.7 21.9 7.9 27 11.3 N 33 44 18 24 1013.0 1013.0 0.0
21/07:06am 28.9 23.0 7.5 26 11.5 NNE 28 48 15 26 1012.7 1012.7 0.0
21/07:00am 28.9 23.1 8.0 27 11.4 NNE 28 44 15 24 1012.7 1012.7 0.0
21/06:30am 27.9 22.4 7.7 28 10.9 NNE 26 37 14 20 1012.5 1012.5 0.0
21/06:00am 28.0 22.3 8.3 29 10.7 NNE 28 39 15 21 1012.1 1012.1 0.0
21/05:30am 27.9 22.9 8.2 29 10.7 NNE 24 33 13 18 1011.8 1011.8 0.0

Other Formats:

Comma delimited format used in spreadsheet applications
http://www.bom.gov.au/fwo/IDS60801/IDS60801.99749.axf

JavaScript Object Notation format (JSON) in row-major order
http://www.bom.gov.au/fwo/IDS60801/IDS60801.99749.json